Time;durP1;ratioP1;P1;durP2;ratioP2;P2;SDS_P1;SDS_P2;PMS_P1;PMS_P2;Temp;Humidity;BMP_temperature;BMP_pressure;BME280_temperature;BME280_humidity;BME280_pressure;Samples;Min_cycle;Max_cycle;Signal;HPM_P1;HPM_P2
2022/04/07 00:00:19;;;;;;;4.77;2.47;;;;;;;9.00;86.70;99108.34;5043559;28;20029;-82
2022/04/07 00:02:45;;;;;;;6.83;2.57;;;;;;;8.97;87.00;99096.13;5045587;28;20041;-82
2022/04/07 00:05:11;;;;;;;7.10;2.40;;;;;;;8.94;86.71;99096.63;5046156;28;20051;-82
2022/04/07 00:07:36;;;;;;;6.00;2.37;;;;;;;9.01;86.71;99091.06;5045202;28;20040;-83
2022/04/07 00:10:03;;;;;;;6.97;2.50;;;;;;;8.85;87.33;99082.69;5044329;28;20431;-79
2022/04/07 00:12:29;;;;;;;5.33;2.03;;;;;;;8.89;87.32;99083.84;5047583;28;20108;-86
2022/04/07 00:14:55;;;;;;;6.93;2.20;;;;;;;8.85;86.60;99066.47;5059369;28;20480;-86
2022/04/07 00:17:23;;;;;;;6.07;2.10;;;;;;;8.92;86.44;99086.06;5044008;28;20032;-83
2022/04/07 00:19:49;;;;;;;4.70;2.10;;;;;;;8.76;86.96;99073.38;5045796;28;20041;-84
2022/04/07 00:22:15;;;;;;;6.83;2.30;;;;;;;8.75;86.79;99069.84;5044872;28;20049;-84
2022/04/07 00:24:42;;;;;;;6.87;2.10;;;;;;;8.78;86.69;99074.75;5060115;28;20024;-82
2022/04/07 00:27:07;;;;;;;6.60;2.10;;;;;;;8.71;86.37;99067.88;5027052;28;20033;-87
2022/04/07 00:29:33;;;;;;;8.90;2.17;;;;;;;8.82;86.95;99071.56;5044259;28;20538;-86
2022/04/07 00:32:03;;;;;;;6.97;2.30;;;;;;;8.80;86.83;99085.31;5046615;28;20045;-82
2022/04/07 00:34:29;;;;;;;8.33;2.30;;;;;;;8.71;87.63;99054.38;5058223;28;20341;-86
2022/04/07 00:36:55;;;;;;;9.30;2.30;;;;;;;8.70;87.45;99058.94;5041776;28;20138;-82
2022/04/07 00:39:20;;;;;;;6.10;2.40;;;;;;;8.56;88.10;99033.31;5043369;28;20037;-85
2022/04/07 00:41:46;;;;;;;9.20;2.40;;;;;;;8.65;88.45;99045.38;5042533;28;20044;-84
2022/04/07 00:44:11;;;;;;;5.70;2.33;;;;;;;8.56;88.30;99034.13;5042891;28;20097;-86
2022/04/07 00:46:38;;;;;;;8.60;2.23;;;;;;;8.49;88.16;99019.97;5041878;28;20382;-85
2022/04/07 00:49:04;;;;;;;7.77;2.23;;;;;;;8.58;88.48;99018.53;5044484;28;20041;-81
2022/04/07 00:51:30;;;;;;;6.93;2.40;;;;;;;8.60;88.11;99027.19;5041188;28;20048;-87
2022/04/07 00:53:57;;;;;;;7.57;2.60;;;;;;;8.59;87.86;99019.34;5043687;28;20029;-84
2022/04/07 00:56:26;;;;;;;8.30;2.10;;;;;;;8.58;87.47;98996.94;5042242;28;20636;-82
2022/04/07 00:58:55;;;;;;;7.10;2.37;;;;;;;8.50;88.50;98994.63;5042972;28;20037;-81
2022/04/07 01:01:23;;;;;;;8.00;2.60;;;;;;;8.48;88.38;98990.53;5043112;28;20036;-81
2022/04/07 01:03:49;;;;;;;9.27;2.90;;;;;;;8.47;88.47;98981.59;5043190;28;20088;-82
2022/04/07 01:06:15;;;;;;;8.23;2.73;;;;;;;8.50;88.49;98959.53;5045817;28;20024;-83
2022/04/07 01:08:41;;;;;;;5.90;2.30;;;;;;;8.50;88.37;98948.75;5041238;28;20033;-85
2022/04/07 01:11:07;;;;;;;5.63;2.80;;;;;;;8.48;89.10;98972.44;5044325;28;20086;-82
2022/04/07 01:13:50;;;;;;;9.97;2.63;;;;;;;8.45;89.69;98979.16;5059511;28;20033;-83
2022/04/07 01:16:17;;;;;;;5.37;2.63;;;;;;;8.39;90.06;98955.81;5046281;28;20074;-81
2022/04/07 01:18:45;;;;;;;10.30;3.40;;;;;;;8.43;90.49;98972.31;5043710;28;20037;-83
2022/04/07 01:21:11;;;;;;;7.30;3.20;;;;;;;8.44;90.27;98964.00;5042792;28;20388;-82
2022/04/07 01:23:38;;;;;;;11.57;3.07;;;;;;;8.42;90.37;98966.13;5045785;28;20045;-90
2022/04/07 01:26:09;;;;;;;7.80;3.20;;;;;;;8.37;90.78;98962.53;5044144;28;20032;-84
2022/04/07 01:28:36;;;;;;;8.40;2.93;;;;;;;8.38;90.40;98953.38;5044536;28;20021;-87
2022/04/07 01:31:01;;;;;;;8.60;2.87;;;;;;;8.44;90.35;98963.19;5040406;28;20512;-80
2022/04/07 01:33:27;;;;;;;8.80;3.30;;;;;;;8.42;90.59;98965.31;5040626;28;20080;-82
2022/04/07 01:35:56;;;;;;;12.03;3.40;;;;;;;8.35;90.28;98929.56;5042892;28;20556;-81
2022/04/07 01:38:21;;;;;;;8.20;2.90;;;;;;;8.47;89.69;98924.13;5041432;28;20052;-81
2022/04/07 01:40:47;;;;;;;11.10;3.10;;;;;;;8.37;89.41;98930.13;5043420;28;20369;-83
2022/04/07 01:43:15;;;;;;;9.73;3.57;;;;;;;8.50;89.18;98926.31;5046161;28;20048;-85
2022/04/07 01:45:43;;;;;;;9.53;2.83;;;;;;;8.40;89.02;98902.66;5044425;28;20457;-83
2022/04/07 01:48:09;;;;;;;10.97;3.50;;;;;;;8.45;88.17;98900.06;5045525;28;20094;-81
2022/04/07 01:50:38;;;;;;;9.07;2.90;;;;;;;8.48;87.70;98904.16;5042074;28;20033;-81
2022/04/07 01:53:04;;;;;;;12.77;3.17;;;;;;;8.50;87.55;98902.03;5044835;28;20044;-81
2022/04/07 01:55:31;;;;;;;8.87;3.00;;;;;;;8.58;87.20;98915.94;5045356;28;20138;-86
2022/04/07 01:57:58;;;;;;;9.37;2.80;;;;;;;8.59;87.09;98905.97;5044965;28;20029;-83
2022/04/07 02:00:23;;;;;;;9.23;3.00;;;;;;;8.58;86.70;98899.75;5044163;28;20044;-82
2022/04/07 02:02:49;;;;;;;10.33;2.90;;;;;;;8.71;86.54;98892.38;5046183;28;20051;-86
2022/04/07 02:05:15;;;;;;;9.10;2.70;;;;;;;8.84;86.33;98902.84;5045159;28;20024;-86
2022/04/07 02:07:42;;;;;;;10.53;2.90;;;;;;;8.71;85.86;98873.47;5044123;28;20533;-85
2022/04/07 02:10:10;;;;;;;10.40;3.00;;;;;;;8.83;85.71;98886.88;5044499;28;20040;-84
2022/04/07 02:12:41;;;;;;;11.53;2.80;;;;;;;8.71;85.64;98866.19;5042977;28;20041;-84
2022/04/07 02:15:08;;;;;;;10.13;2.67;;;;;;;8.75;86.02;98877.31;5044613;28;20440;-89
2022/04/07 02:17:34;;;;;;;7.37;2.70;;;;;;;8.74;86.00;98875.66;5025983;28;20029;-85
2022/04/07 02:20:01;;;;;;;7.87;2.60;;;;;;;8.68;85.94;98810.00;5044273;28;20087;-83
2022/04/07 02:22:29;;;;;;;9.50;3.33;;;;;;;8.73;86.51;98852.44;5058033;28;20053;-84
2022/04/07 02:24:58;;;;;;;10.77;3.27;;;;;;;8.67;86.72;98838.03;5042046;28;20048;-80
2022/04/07 02:27:25;;;;;;;9.33;2.80;;;;;;;8.86;86.67;98879.06;5045632;28;20452;-84
2022/04/07 02:29:50;;;;;;;12.00;2.70;;;;;;;8.69;86.34;98862.09;5042674;28;20358;-86
2022/04/07 02:32:16;;;;;;;12.73;3.17;;;;;;;8.75;86.48;98858.41;5041615;28;20039;-82
2022/04/07 02:34:43;;;;;;;11.07;3.07;;;;;;;8.68;86.42;98844.28;5042700;28;20029;-83
2022/04/07 02:37:09;;;;;;;10.63;2.60;;;;;;;8.82;85.47;98850.13;5041166;28;20037;-80
2022/04/07 02:39:35;;;;;;;8.57;2.73;;;;;;;8.97;85.58;98860.31;5044793;28;20036;-87
2022/04/07 02:42:02;;;;;;;10.17;2.70;;;;;;;8.80;85.20;98826.09;5057557;28;20025;-86
2022/04/07 02:44:28;;;;;;;11.73;3.00;;;;;;;8.78;85.40;98825.50;5045060;28;20025;-88
2022/04/07 02:46:56;;;;;;;10.07;2.70;;;;;;;8.89;84.92;98842.66;5045917;28;20040;-85
2022/04/07 02:49:21;;;;;;;12.63;3.37;;;;;;;8.85;84.78;98833.44;5046442;28;20392;-83
2022/04/07 02:51:47;;;;;;;10.77;2.70;;;;;;;8.77;84.55;98810.34;5045371;28;20017;-81
2022/04/07 02:54:12;;;;;;;10.03;2.80;;;;;;;8.91;83.92;98811.63;5046769;28;20032;-81
2022/04/07 02:56:43;;;;;;;12.60;2.90;;;;;;;8.98;83.60;98829.56;5046311;28;20043;-81
2022/04/07 02:59:11;;;;;;;11.10;2.97;;;;;;;8.89;83.68;98785.94;5047410;28;20082;-80
2022/04/07 03:01:39;;;;;;;10.50;2.97;;;;;;;8.97;83.33;98787.41;5048466;28;20032;-82
2022/04/07 03:04:05;;;;;;;9.17;2.87;;;;;;;8.98;83.39;98787.13;5044097;28;20103;-85
2022/04/07 03:06:30;;;;;;;13.83;2.77;;;;;;;8.94;83.00;98799.53;5045640;28;20047;-85
2022/04/07 03:08:56;;;;;;;10.70;2.80;;;;;;;8.93;82.29;98727.66;5047331;28;20028;-84
2022/04/07 03:11:21;;;;;;;9.93;3.03;;;;;;;9.08;82.01;98773.75;5046322;28;20376;-81
2022/04/07 03:13:49;;;;;;;10.93;2.90;;;;;;;9.20;82.05;98781.72;5045432;28;20131;-84
2022/04/07 03:16:15;;;;;;;11.60;3.00;;;;;;;9.18;82.60;98775.75;5048502;28;20082;-86
2022/04/07 03:18:40;;;;;;;7.37;2.80;;;;;;;9.00;81.74;98732.88;5044753;28;20032;-81
2022/04/07 03:21:06;;;;;;;11.77;3.20;;;;;;;9.07;81.66;98730.78;5046518;28;20017;-86
2022/04/07 03:23:31;;;;;;;15.80;3.40;;;;;;;9.00;81.95;98712.06;5061501;28;20213;-84
2022/04/07 03:26:02;;;;;;;9.70;2.80;;;;;;;9.26;81.42;98734.78;5046807;28;20243;-82
2022/04/07 03:28:27;;;;;;;11.67;2.70;;;;;;;9.20;81.23;98748.47;5029855;28;20044;-85
2022/04/07 03:30:53;;;;;;;12.57;3.00;;;;;;;9.09;81.02;98712.44;5023445;28;20051;-86
2022/04/07 03:33:22;;;;;;;10.13;2.80;;;;;;;9.06;80.94;98700.25;5045564;28;20039;-88
2022/04/07 03:35:47;;;;;;;12.10;3.63;;;;;;;9.17;80.17;98705.78;5044669;28;20041;-85
2022/04/07 03:38:13;;;;;;;11.40;2.77;;;;;;;9.13;79.86;98697.34;5045655;28;20120;-85
2022/04/07 03:40:39;;;;;;;12.37;2.83;;;;;;;9.33;80.15;98731.88;5046759;28;20059;-84
2022/04/07 03:43:04;;;;;;;15.90;3.20;;;;;;;9.12;79.87;98690.31;5044841;28;20037;-83
2022/04/07 03:45:30;;;;;;;11.43;3.03;;;;;;;9.18;79.84;98694.69;5046663;28;20059;-84
2022/04/07 03:47:58;;;;;;;10.97;2.83;;;;;;;9.19;79.39;98692.81;5047473;28;20032;-80
2022/04/07 03:50:24;;;;;;;11.83;2.63;;;;;;;9.23;79.67;98694.75;5047179;28;20029;-86
2022/04/07 03:52:53;;;;;;;9.37;2.50;;;;;;;9.16;79.88;98669.81;5046310;28;20025;-82
2022/04/07 03:55:24;;;;;;;10.57;3.07;;;;;;;9.14;79.69;98658.47;5047033;28;20036;-81
2022/04/07 03:57:49;;;;;;;9.67;2.60;;;;;;;9.12;79.86;98677.63;5043304;28;20024;-83
2022/04/07 04:00:16;;;;;;;7.93;2.70;;;;;;;9.16;80.01;98661.72;5045175;28;20419;-80
2022/04/07 04:02:44;;;;;;;8.47;2.83;;;;;;;9.19;80.42;98657.69;5044426;28;20389;-88
2022/04/07 04:05:11;;;;;;;7.73;2.80;;;;;;;9.22;81.38;98670.66;5044806;28;20393;-88
2022/04/07 04:07:38;;;;;;;12.10;2.87;;;;;;;9.18;80.86;98662.28;5043967;28;20408;-84
2022/04/07 04:10:11;;;;;;;10.23;3.00;;;;;;;9.22;80.61;98657.16;5043923;28;20037;-83
2022/04/07 04:12:36;;;;;;;10.00;2.97;;;;;;;9.09;81.41;98626.00;5045472;28;20388;-81
2022/04/07 04:15:02;;;;;;;8.20;2.60;;;;;;;9.06;80.58;98604.91;5042919;28;20045;-81
2022/04/07 04:17:51;;;;;;;11.23;2.80;;;;;;;8.99;80.90;98555.66;5044556;28;20101;-82
2022/04/07 04:20:17;;;;;;;9.83;3.00;;;;;;;9.09;80.21;98563.84;5043873;28;20542;-83
2022/04/07 04:22:45;;;;;;;9.93;2.77;;;;;;;9.28;79.68;98594.00;5044642;28;20336;-86
2022/04/07 04:25:47;;;;;;;9.53;2.70;;;;;;;9.31;79.69;98534.00;5045787;28;20044;-86
2022/04/07 04:28:13;;;;;;;7.53;2.50;;;;;;;9.20;79.16;98549.34;5060362;28;20071;-84
2022/04/07 04:30:38;;;;;;;8.70;2.53;;;;;;;9.28;79.33;98531.84;5044593;28;20523;-80
2022/04/07 04:33:25;;;;;;;8.87;2.50;;;;;;;9.09;79.50;98528.75;5041474;28;20033;-81
2022/04/07 04:35:51;;;;;;;10.43;2.60;;;;;;;9.12;79.67;98530.91;5042660;28;20506;-80
2022/04/07 04:38:19;;;;;;;4.80;2.33;;;;;;;9.18;79.70;98524.50;5044139;28;20021;-80
2022/04/07 04:40:44;;;;;;;8.13;2.30;;;;;;;9.16;78.57;98478.00;5044240;28;20024;-84
2022/04/07 04:43:12;;;;;;;8.70;2.50;;;;;;;9.40;79.17;98542.47;5044978;28;20440;-86
2022/04/07 04:45:37;;;;;;;5.03;2.07;;;;;;;9.44;78.09;98522.75;5044147;28;20379;-88
2022/04/07 04:48:03;;;;;;;9.23;3.07;;;;;;;9.38;78.71;98525.69;5043986;28;20073;-83
2022/04/07 04:50:31;;;;;;;6.10;2.30;;;;;;;9.18;79.50;98494.78;5044029;28;20031;-86
2022/04/07 04:52:56;;;;;;;5.53;2.37;;;;;;;9.16;79.63;98480.69;5043254;28;20047;-80
2022/04/07 04:55:22;;;;;;;7.33;2.17;;;;;;;9.19;80.69;98472.06;5043745;28;20037;-82
2022/04/07 04:57:50;;;;;;;7.73;2.10;;;;;;;9.08;80.94;98468.50;5043974;28;20479;-80
2022/04/07 05:00:16;;;;;;;5.67;2.03;;;;;;;9.04;82.37;98477.38;5043976;28;20117;-82
2022/04/07 05:02:41;;;;;;;6.13;2.40;;;;;;;9.08;83.35;98494.69;5041042;28;20532;-87
2022/04/07 05:05:07;;;;;;;4.37;2.30;;;;;;;9.10;83.57;98460.13;5042680;28;20045;-88
2022/04/07 05:07:33;;;;;;;7.80;2.30;;;;;;;8.92;83.48;98440.56;5059235;28;20029;-84
2022/04/07 05:10:02;;;;;;;5.57;2.10;;;;;;;8.89;83.74;98400.56;5041792;28;20480;-85
2022/04/07 05:12:30;;;;;;;4.97;2.17;;;;;;;9.02;84.49;98444.41;5043829;28;21425;-81
2022/04/07 05:14:56;;;;;;;5.73;2.00;;;;;;;8.97;84.19;98431.69;5044193;28;20040;-84
2022/04/07 05:17:24;;;;;;;4.90;2.07;;;;;;;8.90;84.14;98440.00;5045071;28;20044;-81
2022/04/07 05:19:50;;;;;;;5.83;2.00;;;;;;;9.01;84.46;98453.59;5051062;28;20036;-81
2022/04/07 05:22:15;;;;;;;4.60;2.03;;;;;;;8.94;84.88;98418.72;5050043;28;20049;-82
2022/04/07 05:24:40;;;;;;;3.50;1.90;;;;;;;8.93;84.46;98420.59;5051007;28;20031;-83
2022/04/07 05:27:06;;;;;;;5.00;2.20;;;;;;;8.99;84.48;98385.50;5044463;28;20037;-84
2022/04/07 05:29:34;;;;;;;4.13;1.80;;;;;;;8.98;84.48;98416.31;5049437;28;20056;-82
2022/04/07 05:32:01;;;;;;;5.03;2.60;;;;;;;8.94;85.11;98397.91;5053323;28;20025;-80
2022/04/07 05:34:27;;;;;;;5.43;2.10;;;;;;;8.85;86.61;98404.06;5051116;28;20432;-83
2022/04/07 05:36:52;;;;;;;6.13;2.40;;;;;;;8.74;87.71;98390.50;5052495;28;20060;-81
2022/04/07 05:39:18;;;;;;;5.13;2.20;;;;;;;8.58;88.32;98367.16;5053624;28;20414;-82
2022/04/07 05:41:43;;;;;;;4.00;2.40;;;;;;;8.77;88.12;98406.19;5053476;28;20029;-81
2022/04/07 05:44:09;;;;;;;4.93;2.17;;;;;;;8.50;88.95;98381.97;5052346;28;20106;-82
2022/04/07 05:49:56;;;;;;;5.17;2.53;;;;;;;8.41;91.37;98383.47;5049868;28;20381;-82
2022/04/07 05:52:22;;;;;;;7.07;3.03;;;;;;;8.43;92.47;98387.56;5052040;28;20364;-82
2022/04/07 05:54:48;;;;;;;7.90;3.10;;;;;;;8.41;93.44;98381.59;5052177;28;20034;-83
2022/04/07 05:57:13;;;;;;;4.17;3.10;;;;;;;8.17;93.96;98337.97;5038394;28;20039;-84
2022/04/07 05:59:41;;;;;;;7.33;3.00;;;;;;;8.30;95.06;98362.91;5041289;28;20068;-83
2022/04/07 06:02:06;;;;;;;8.63;4.40;;;;;;;8.03;95.65;98310.63;5057050;28;20044;-89
2022/04/07 06:04:32;;;;;;;7.93;3.97;;;;;;;8.07;96.17;98329.81;5037177;28;20396;-83
2022/04/07 06:07:00;;;;;;;9.87;3.97;;;;;;;7.98;96.12;98315.16;5042702;28;20504;-83
2022/04/07 06:09:26;;;;;;;8.63;3.87;;;;;;;8.01;96.77;98303.84;5043699;28;20036;-86
2022/04/07 06:11:51;;;;;;;11.67;4.50;;;;;;;7.99;96.55;98309.50;5043804;28;20052;-83
2022/04/07 06:14:17;;;;;;;9.77;4.33;;;;;;;8.05;96.40;98310.34;5041808;28;20045;-85
2022/04/07 06:16:42;;;;;;;8.10;4.47;;;;;;;8.23;96.03;98304.56;5041308;28;20070;-82
2022/04/07 06:19:07;;;;;;;10.03;4.60;;;;;;;8.09;95.72;98282.63;5040571;28;20041;-84
2022/04/07 06:21:33;;;;;;;10.23;4.33;;;;;;;8.04;95.50;98276.41;5044108;28;20056;-83
2022/04/07 06:23:59;;;;;;;9.07;4.40;;;;;;;8.16;95.51;98282.41;5055366;28;20531;-83
2022/04/07 06:26:25;;;;;;;7.83;4.10;;;;;;;8.15;95.01;98264.59;5057150;28;20051;-83
2022/04/07 06:28:51;;;;;;;8.77;4.17;;;;;;;8.05;95.37;98254.56;5042954;28;20364;-87
2022/04/07 06:31:16;;;;;;;9.13;4.60;;;;;;;8.01;95.42;98220.25;5041919;28;20044;-88
2022/04/07 06:33:44;;;;;;;10.57;4.33;;;;;;;8.08;95.41;98255.94;5041547;28;20040;-86
2022/04/07 06:36:09;;;;;;;11.87;4.07;;;;;;;8.02;95.33;98238.88;5042168;28;20035;-83
2022/04/07 06:38:35;;;;;;;9.67;4.17;;;;;;;8.21;96.10;98277.03;5042594;28;20465;-82
2022/04/07 06:41:01;;;;;;;9.07;4.00;;;;;;;8.09;96.74;98269.16;5042938;28;20044;-82
2022/04/07 06:43:27;;;;;;;10.63;4.10;;;;;;;8.00;96.43;98240.22;5042619;28;20045;-86
2022/04/07 06:45:53;;;;;;;10.00;3.73;;;;;;;8.01;96.49;98234.56;5047450;28;20539;-88
2022/04/07 06:48:18;;;;;;;10.83;4.00;;;;;;;8.01;96.92;98209.47;5051516;28;20108;-82
2022/04/07 06:50:44;;;;;;;8.00;3.50;;;;;;;7.95;97.20;98197.84;5043002;28;20457;-82
2022/04/07 06:53:09;;;;;;;10.73;3.77;;;;;;;7.93;97.19;98184.63;5048243;28;20454;-81
2022/04/07 06:55:35;;;;;;;11.90;3.70;;;;;;;7.90;97.39;98182.47;5055162;28;20029;-82
2022/04/07 06:58:02;;;;;;;10.60;3.30;;;;;;;7.99;96.57;98196.25;5055196;28;20021;-83
2022/04/07 07:00:29;;;;;;;8.73;3.90;;;;;;;8.11;97.21;98187.97;5053792;28;20024;-83
2022/04/07 07:02:57;;;;;;;8.20;3.23;;;;;;;8.10;97.75;98171.00;5052067;28;20342;-84
2022/04/07 07:05:30;;;;;;;9.50;3.53;;;;;;;7.93;98.19;98154.16;5055085;28;20060;-82
2022/04/07 07:07:55;;;;;;;9.30;3.43;;;;;;;7.93;97.83;98144.19;5054301;28;20119;-82
2022/04/07 07:10:28;;;;;;;9.87;3.30;;;;;;;7.84;98.39;98118.78;5056302;28;20052;-84
2022/04/07 07:12:54;;;;;;;12.20;3.73;;;;;;;7.84;98.61;98134.97;5070714;28;20037;-82
2022/04/07 07:15:21;;;;;;;9.90;3.50;;;;;;;7.94;99.53;98136.91;5054331;28;20060;-82
2022/04/07 07:17:47;;;;;;;9.47;3.57;;;;;;;8.00;99.72;98148.56;5055816;28;20033;-82
2022/04/07 07:20:12;;;;;;;11.27;3.80;;;;;;;7.94;100.00;98137.72;5052709;28;20036;-82
2022/04/07 07:22:42;;;;;;;12.43;3.90;;;;;;;7.97;100.00;98132.88;5053609;28;20399;-83
2022/04/07 07:25:09;;;;;;;7.80;3.50;;;;;;;7.97;100.00;98112.13;5054920;28;20029;-82
2022/04/07 07:27:35;;;;;;;9.67;3.70;;;;;;;7.89;100.00;98091.06;5054313;28;20044;-82
2022/04/07 07:30:01;;;;;;;9.70;3.70;;;;;;;7.88;100.00;98095.63;5036688;28;20566;-81
2022/04/07 07:32:26;;;;;;;9.70;3.60;;;;;;;7.95;100.00;98125.03;5051445;28;20021;-82
2022/04/07 07:34:52;;;;;;;7.13;3.10;;;;;;;7.84;100.00;98148.44;5055222;28;20112;-82
2022/04/07 07:37:18;;;;;;;7.70;2.43;;;;;;;7.68;100.00;98187.16;5053757;28;20029;-81
2022/04/07 07:39:44;;;;;;;5.77;1.57;;;;;;;6.81;91.81;98204.09;5053485;28;20028;-81
2022/04/07 07:42:09;;;;;;;6.43;1.20;;;;;;;6.04;94.82;98179.78;5055159;28;20029;-81
2022/04/07 07:44:34;;;;;;;2.37;0.83;;;;;;;5.51;96.50;98181.91;5053307;28;20349;-82
2022/04/07 07:47:00;;;;;;;3.37;0.83;;;;;;;5.29;98.04;98157.66;5067735;28;20321;-83
2022/04/07 07:49:26;;;;;;;2.50;0.87;;;;;;;5.03;100.00;98175.19;5038758;28;20152;-84
2022/04/07 07:52:34;;;;;;;4.07;1.30;;;;;;;5.05;100.00;98224.88;5050815;28;20110;-83
2022/04/07 07:58:59;;;;;;;4.70;1.20;;;;;;;4.79;100.00;98260.34;5044197;28;20438;-81
2022/04/07 08:04:53;;;;;;;4.13;1.40;;;;;;;4.44;100.00;98229.06;5045068;28;20420;-82
2022/04/07 08:07:21;;;;;;;4.60;1.63;;;;;;;4.63;100.00;98225.16;5050689;28;20060;-84
2022/04/07 08:09:47;;;;;;;5.87;1.50;;;;;;;4.37;100.00;98192.44;5041181;28;20680;-85
2022/04/07 08:12:16;;;;;;;6.60;1.60;;;;;;;4.52;100.00;98208.03;5038689;28;20037;-82
2022/04/07 08:14:47;;;;;;;6.63;1.70;;;;;;;4.45;100.00;98175.19;5044416;28;20040;-82
2022/04/07 08:17:14;;;;;;;7.43;2.43;;;;;;;4.59;100.00;98207.91;5037006;28;21294;-84
2022/04/07 08:19:40;;;;;;;8.03;2.60;;;;;;;4.61;100.00;98191.56;5039387;28;20029;-89
2022/04/07 08:22:07;;;;;;;8.27;2.60;;;;;;;4.59;100.00;98180.28;5043521;28;20025;-82
2022/04/07 08:24:34;;;;;;;6.07;2.03;;;;;;;4.70;100.00;98199.00;5053964;28;20049;-86
2022/04/07 08:27:01;;;;;;;6.53;2.20;;;;;;;4.71;100.00;98183.72;5034841;28;20059;-88
2022/04/07 08:29:27;;;;;;;8.13;2.53;;;;;;;4.92;100.00;98210.94;5035141;28;20060;-88
2022/04/07 08:31:52;;;;;;;8.87;2.97;;;;;;;4.99;100.00;98195.50;5037070;28;20040;-89
2022/04/07 08:34:20;;;;;;;8.90;2.90;;;;;;;5.07;100.00;98171.78;5033045;28;20029;-91
2022/04/07 08:36:46;;;;;;;9.90;3.37;;;;;;;5.17;100.00;98165.78;5051325;28;20103;-83
2022/04/07 08:39:12;;;;;;;10.70;3.37;;;;;;;5.44;100.00;98207.28;5032886;28;20416;-89
2022/04/07 08:41:39;;;;;;;9.50;3.30;;;;;;;5.37;100.00;98192.16;5049305;28;20083;-88
2022/04/07 08:44:04;;;;;;;6.63;3.00;;;;;;;5.52;100.00;98174.66;5034083;28;20446;-85
2022/04/07 08:46:32;;;;;;;9.13;3.70;;;;;;;5.77;100.00;98178.78;5033836;28;20076;-86
2022/04/07 08:49:00;;;;;;;12.47;4.00;;;;;;;5.87;100.00;98193.19;5035662;28;20037;-90
2022/04/07 08:51:28;;;;;;;9.73;3.53;;;;;;;5.92;100.00;98166.41;5035146;28;20102;-88
2022/04/07 08:53:56;;;;;;;10.40;2.80;;;;;;;6.04;100.00;98171.69;5033007;28;20122;-83
2022/04/07 08:56:24;;;;;;;7.13;2.73;;;;;;;6.25;100.00;98172.78;5038947;28;20036;-86
2022/04/07 08:58:51;;;;;;;8.43;3.10;;;;;;;6.38;100.00;98155.47;5038548;28;20036;-86
2022/04/07 09:01:17;;;;;;;9.30;2.77;;;;;;;6.78;100.00;98182.28;5036223;28;20460;-86
2022/04/07 09:03:43;;;;;;;8.57;2.30;;;;;;;6.99;100.00;98172.53;5040119;28;20089;-89
2022/04/07 09:06:09;;;;;;;6.87;2.00;;;;;;;7.48;100.00;98187.78;5040408;28;20033;-83
2022/04/07 09:08:39;;;;;;;5.03;1.77;;;;;;;7.55;100.00;98181.13;5039477;28;20040;-83
2022/04/07 09:11:10;;;;;;;6.23;2.07;;;;;;;7.60;98.29;98173.09;5039336;28;20068;-86
2022/04/07 09:13:41;;;;;;;5.10;1.80;;;;;;;7.80;96.76;98186.97;5040910;28;20028;-83
2022/04/07 09:16:12;;;;;;;4.90;1.43;;;;;;;8.07;95.88;98190.38;5040789;28;20033;-91
2022/04/07 09:18:39;;;;;;;5.13;1.67;;;;;;;8.45;95.95;98193.84;5037023;28;20032;-90
2022/04/07 09:21:08;;;;;;;4.57;1.60;;;;;;;8.67;93.30;98194.75;5039917;28;20037;-84
2022/04/07 09:23:40;;;;;;;7.10;1.70;;;;;;;8.91;92.18;98179.69;5037528;28;20452;-93
2022/04/07 09:26:11;;;;;;;7.47;2.57;;;;;;;9.15;90.20;98192.69;5038169;28;20054;-86
2022/04/07 09:28:37;;;;;;;7.20;2.00;;;;;;;9.25;87.99;98179.22;5038035;28;20017;-85
2022/04/07 09:31:02;;;;;;;6.07;2.10;;;;;;;9.48;87.06;98196.00;5037359;28;20118;-85
2022/04/07 09:33:35;;;;;;;6.07;1.40;;;;;;;9.68;85.16;98213.28;5037214;28;21449;-82
2022/04/07 09:36:01;;;;;;;4.57;1.40;;;;;;;9.77;82.70;98222.50;5039197;28;20369;-87
2022/04/07 09:38:33;;;;;;;7.03;1.57;;;;;;;9.66;81.59;98197.34;5053856;28;21401;-86
2022/04/07 09:41:10;;;;;;;5.83;1.40;;;;;;;9.90;81.56;98194.91;5037988;28;20035;-87
2022/04/07 09:43:54;;;;;;;5.13;1.30;;;;;;;10.04;79.78;98199.75;5038170;28;20036;-87
2022/04/07 09:46:23;;;;;;;8.13;1.70;;;;;;;10.33;82.45;98201.84;5036627;28;20041;-86
2022/04/07 09:49:03;;;;;;;6.57;1.83;;;;;;;10.52;76.57;98231.88;5038820;28;20029;-86
2022/04/07 09:51:40;;;;;;;4.03;1.27;;;;;;;10.38;75.53;98188.34;5038214;28;20039;-84
2022/04/07 09:54:09;;;;;;;4.00;1.20;;;;;;;10.58;74.43;98201.78;5038985;28;20037;-89
2022/04/07 09:56:38;;;;;;;6.47;1.60;;;;;;;10.58;72.84;98182.00;5057431;28;20040;-88
2022/04/07 09:59:11;;;;;;;5.70;1.87;;;;;;;10.90;73.20;98184.31;5042675;28;20158;-86
2022/04/07 10:01:38;;;;;;;6.10;1.50;;;;;;;10.97;70.13;98173.16;5042809;28;20472;-86
2022/04/07 10:04:10;;;;;;;7.47;1.43;;;;;;;11.15;69.19;98201.50;5042324;28;20135;-85
2022/04/07 10:06:38;;;;;;;5.33;1.20;;;;;;;11.09;68.15;98194.50;5042582;28;20029;-84
2022/04/07 10:09:07;;;;;;;6.40;1.60;;;;;;;11.06;70.36;98200.50;5042029;28;20035;-84
2022/04/07 10:11:35;;;;;;;5.80;1.37;;;;;;;11.34;67.48;98198.13;5041062;28;20479;-83
2022/04/07 10:14:01;;;;;;;7.73;1.60;;;;;;;11.42;65.96;98192.09;5040866;28;20037;-85
2022/04/07 10:16:28;;;;;;;8.07;1.53;;;;;;;11.36;65.53;98207.59;5042719;28;20039;-83
2022/04/07 10:19:27;;;;;;;7.73;1.57;;;;;;;11.43;64.66;98223.56;5042655;28;20107;-85
2022/04/07 10:22:12;;;;;;;9.07;1.70;;;;;;;11.56;61.15;98228.34;5040267;28;20115;-87
2022/04/07 10:24:41;;;;;;;;;;;;;;;11.70;63.50;98235.84;5042156;28;20068;-87
2022/04/07 10:27:12;;;;;;;8.77;1.80;;;;;;;11.41;61.55;98198.63;5056213;28;19924;-89
2022/04/07 10:29:40;;;;;;;5.03;1.47;;;;;;;11.18;61.73;98219.94;5057343;28;20091;-85
2022/04/07 10:32:11;;;;;;;7.20;1.60;;;;;;;11.26;61.22;98257.28;5042106;28;20068;-86
2022/04/07 10:34:57;;;;;;;7.90;2.20;;;;;;;11.22;62.76;98218.28;5055725;28;20036;-84
2022/04/07 10:37:47;;;;;;;5.67;1.63;;;;;;;11.35;63.58;98245.84;5044223;28;20032;-86
2022/04/07 10:40:38;;;;;;;11.80;1.77;;;;;;;11.27;59.46;98263.50;5037004;28;20107;-87
2022/04/07 10:43:06;;;;;;;10.10;1.70;;;;;;;10.86;58.70;98301.63;5042478;28;20032;-86
2022/04/07 10:45:33;;;;;;;7.60;1.90;;;;;;;10.44;58.74;98230.53;5041014;28;20112;-83
2022/04/07 10:48:30;;;;;;;9.60;1.90;;;;;;;10.68;58.24;98274.06;5041875;28;20530;-86
2022/04/07 10:50:56;;;;;;;7.83;2.03;;;;;;;10.77;57.31;98291.38;5040420;28;20029;-86
2022/04/07 10:53:29;;;;;;;7.27;1.70;;;;;;;11.02;56.65;98294.25;5054664;28;20052;-83
2022/04/07 10:56:19;;;;;;;9.13;2.10;;;;;;;11.27;57.37;98307.69;5041257;28;20094;-87
2022/04/07 10:58:47;;;;;;;11.07;1.80;;;;;;;11.06;57.23;98262.81;5040811;28;20120;-84
2022/04/07 11:01:33;;;;;;;7.50;1.80;;;;;;;11.19;57.90;98289.28;5054397;28;20151;-83
2022/04/07 11:04:22;;;;;;;12.23;2.10;;;;;;;11.51;56.87;98317.88;5040345;28;20036;-85
2022/04/07 11:07:10;;;;;;;7.50;2.07;;;;;;;11.14;55.74;98309.09;5039128;28;20606;-82
2022/04/07 11:09:58;;;;;;;9.13;2.20;;;;;;;10.77;57.84;98302.19;5038545;28;20047;-84
2022/04/07 11:12:33;;;;;;;8.57;1.90;;;;;;;10.61;58.37;98323.09;5038874;28;20031;-84
2022/04/07 11:15:01;;;;;;;8.70;2.27;;;;;;;10.54;59.85;98335.28;5038276;28;20052;-83
2022/04/07 11:17:43;;;;;;;10.10;2.03;;;;;;;10.44;59.97;98274.66;5039528;28;20489;-84
2022/04/07 11:20:24;;;;;;;7.57;1.80;;;;;;;10.70;59.39;98336.06;5039034;28;20090;-86
2022/04/07 11:22:55;;;;;;;10.13;2.37;;;;;;;10.34;58.53;98293.59;5053487;28;20495;-87
2022/04/07 11:25:22;;;;;;;10.73;1.97;;;;;;;10.29;59.22;98347.72;5039299;28;20159;-86
2022/04/07 11:28:22;;;;;;;9.03;2.00;;;;;;;10.28;60.15;98298.19;5038891;28;20098;-85
2022/04/07 11:30:54;;;;;;;11.03;2.00;;;;;;;9.93;60.81;98326.88;5038722;28;20044;-86
2022/04/07 11:33:20;;;;;;;8.70;2.17;;;;;;;9.89;62.41;98366.38;5052014;28;20020;-84
2022/04/07 11:36:00;;;;;;;10.63;2.37;;;;;;;9.87;64.81;98351.50;5038714;28;20029;-87
2022/04/07 11:38:30;;;;;;;12.07;2.23;;;;;;;9.63;63.76;98366.31;5038010;28;20032;-87
2022/04/07 11:41:12;;;;;;;9.10;2.20;;;;;;;9.61;65.29;98371.19;5038294;28;20110;-86
2022/04/07 11:43:46;;;;;;;13.33;2.43;;;;;;;9.48;64.44;98362.75;5041086;28;20041;-86
2022/04/07 11:46:25;;;;;;;11.98;2.80;;;;;;;9.39;62.70;98357.06;5036894;28;20048;-83
2022/04/07 11:48:51;;;;;;;12.80;2.27;;;;;;;9.19;63.32;98347.78;5038472;28;20029;-86
2022/04/07 11:51:20;;;;;;;13.57;2.90;;;;;;;9.11;64.56;98375.28;5038260;28;20126;-83
2022/04/07 11:54:00;;;;;;;10.67;2.37;;;;;;;9.07;67.17;98368.78;5056758;28;20037;-85